createdAt,value
2024-04-18T00:02:06.437Z,10.30
2024-04-18T00:04:37.224Z,10.30
2024-04-18T00:07:07.572Z,10.30
2024-04-18T00:09:37.848Z,8.10
2024-04-18T00:12:10.062Z,8.20
2024-04-18T00:14:40.453Z,12.30
2024-04-18T00:17:11.110Z,11.50
2024-04-18T00:19:41.656Z,14.00
2024-04-18T00:22:11.986Z,13.40
2024-04-18T00:24:42.372Z,10.90
2024-04-18T00:27:12.933Z,12.00
2024-04-18T00:29:44.011Z,11.80
2024-04-18T00:32:14.775Z,12.30
2024-04-18T00:34:45.019Z,11.70
2024-04-18T00:37:16.134Z,10.80
2024-04-18T00:42:15.992Z,11.10
2024-04-18T00:44:46.549Z,9.10
2024-04-18T00:47:17.730Z,8.10
2024-04-18T00:49:48.093Z,11.50
2024-04-18T00:52:20.358Z,10.70
2024-04-18T00:54:51.273Z,10.50
2024-04-18T00:57:21.862Z,8.80
2024-04-18T00:59:53.081Z,8.60
2024-04-18T01:02:26.578Z,10.30
2024-04-18T01:04:57.228Z,9.20
2024-04-18T01:07:27.425Z,8.10
2024-04-18T01:09:57.848Z,10.60
2024-04-18T01:12:28.502Z,7.90
2024-04-18T01:14:59.054Z,8.50
2024-04-18T01:17:29.657Z,6.90
2024-04-18T01:20:00.079Z,10.20
2024-04-18T01:22:30.526Z,9.90
2024-04-18T01:25:00.856Z,11.90
2024-04-18T01:27:31.598Z,12.00
2024-04-18T01:30:02.286Z,14.50
2024-04-18T01:32:36.249Z,14.20
2024-04-18T01:35:09.867Z,16.60
2024-04-18T01:37:42.091Z,17.60
2024-04-18T01:40:13.819Z,16.80
2024-04-18T01:42:44.538Z,18.20
2024-04-18T01:45:15.577Z,14.80
2024-04-18T01:47:45.886Z,14.10
2024-04-18T01:50:16.140Z,14.50
2024-04-18T01:52:46.743Z,10.90
2024-04-18T01:55:16.979Z,11.10
2024-04-18T01:57:47.309Z,12.00
2024-04-18T02:00:18.205Z,9.20
2024-04-18T02:02:48.570Z,11.10
2024-04-18T02:05:19.029Z,9.00
2024-04-18T02:07:49.720Z,8.90
2024-04-18T02:10:19.958Z,7.90
2024-04-18T02:12:50.211Z,9.90
2024-04-18T02:15:20.536Z,7.70
2024-04-18T02:17:51.223Z,10.40
2024-04-18T02:20:22.079Z,9.00
2024-04-18T02:22:52.504Z,8.00
2024-04-18T02:25:22.731Z,7.70
2024-04-18T02:27:53.521Z,7.60
2024-04-18T02:30:26.655Z,7.20
2024-04-18T02:32:58.080Z,7.30
2024-04-18T02:35:29.032Z,9.00
2024-04-18T02:38:00.271Z,10.70
2024-04-18T02:40:30.426Z,8.90
2024-04-18T02:43:00.839Z,7.30
2024-04-18T02:45:31.685Z,8.20
2024-04-18T02:48:02.117Z,9.20
2024-04-18T02:50:32.353Z,6.80
2024-04-18T02:53:02.654Z,8.20
2024-04-18T02:55:33.578Z,8.50
2024-04-18T02:58:04.171Z,9.80
2024-04-18T03:00:37.430Z,7.60
2024-04-18T03:03:07.954Z,7.40
2024-04-18T03:05:38.379Z,6.20
2024-04-18T03:08:10.878Z,9.60
2024-04-18T03:10:49.962Z,14.20
2024-04-18T03:13:20.304Z,12.70
2024-04-18T03:15:50.599Z,10.00
2024-04-18T03:18:20.964Z,9.70
2024-04-18T03:20:57.293Z,12.10
2024-04-18T03:23:27.960Z,7.10
2024-04-18T03:25:58.337Z,9.70
2024-04-18T03:28:28.989Z,7.40
2024-04-18T03:31:03.355Z,6.50
2024-04-18T03:33:34.029Z,9.90
2024-04-18T03:36:05.969Z,6.30
2024-04-18T03:38:38.035Z,6.60
2024-04-18T03:41:08.406Z,7.30
2024-04-18T03:43:38.720Z,5.20
2024-04-18T03:46:09.494Z,5.50
2024-04-18T03:48:39.956Z,18.00
2024-04-18T03:51:10.757Z,18.90
2024-04-18T03:53:41.004Z,19.50
2024-04-18T03:56:11.323Z,14.40
2024-04-18T03:58:41.840Z,18.00
2024-04-18T04:01:12.110Z,14.00
2024-04-18T04:03:42.868Z,14.20
2024-04-18T04:06:13.462Z,9.50
2024-04-18T04:08:43.761Z,15.00
2024-04-18T04:11:14.897Z,13.00
2024-04-18T04:13:45.181Z,12.10
2024-04-18T04:16:15.512Z,10.00
2024-04-18T04:18:45.921Z,10.00
2024-04-18T04:21:16.207Z,8.50
2024-04-18T04:23:46.804Z,9.60
2024-04-18T04:26:17.660Z,7.20
2024-04-18T04:28:47.954Z,6.10
2024-04-18T04:31:18.311Z,6.70
2024-04-18T04:33:48.723Z,11.40
2024-04-18T04:36:19.025Z,14.10
2024-04-18T04:38:49.527Z,22.20
2024-04-18T04:41:20.247Z,26.90
2024-04-18T04:43:50.495Z,34.90
2024-04-18T04:46:20.648Z,38.40
2024-04-18T04:48:50.934Z,33.00
2024-04-18T04:51:21.876Z,21.90
2024-04-18T04:53:54.386Z,18.00
2024-04-18T04:56:25.445Z,10.50
2024-04-18T04:58:58.992Z,7.10
2024-04-18T05:01:29.546Z,6.50
2024-04-18T05:03:59.934Z,10.80
2024-04-18T05:06:30.427Z,6.60
2024-04-18T05:09:00.870Z,6.10
2024-04-18T05:11:31.726Z,9.80
2024-04-18T05:14:02.302Z,7.90
2024-04-18T05:19:01.858Z,6.20
2024-04-18T05:21:32.558Z,5.50
2024-04-18T05:24:03.292Z,5.70
2024-04-18T05:26:42.362Z,4.80
2024-04-18T05:29:13.420Z,5.30
2024-04-18T05:34:12.785Z,13.20
2024-04-18T05:36:44.638Z,7.90
2024-04-18T05:39:15.074Z,6.90
2024-04-18T05:41:45.507Z,6.70
2024-04-18T05:44:15.934Z,6.10
2024-04-18T05:46:46.407Z,7.10
2024-04-18T05:49:17.102Z,5.80
2024-04-18T05:51:47.706Z,7.60
2024-04-18T05:54:18.179Z,6.10
2024-04-18T05:56:48.986Z,6.80
2024-04-18T05:59:19.724Z,6.80
2024-04-18T06:01:50.197Z,5.70
2024-04-18T06:04:20.353Z,6.40
2024-04-18T06:06:50.697Z,7.60
2024-04-18T06:09:21.220Z,9.40
2024-04-18T06:11:52.106Z,10.90
2024-04-18T06:14:22.848Z,8.30
2024-04-18T06:16:53.660Z,7.10
2024-04-18T06:19:26.301Z,13.50
2024-04-18T06:21:58.124Z,10.10
2024-04-18T06:24:28.414Z,8.40
2024-04-18T06:26:58.791Z,7.00
2024-04-18T06:29:29.436Z,8.90
2024-04-18T06:31:59.723Z,7.20
2024-04-18T06:34:30.170Z,5.30
2024-04-18T06:37:00.752Z,5.30
2024-04-18T06:39:31.297Z,5.20
2024-04-18T06:42:01.647Z,6.10
2024-04-18T06:44:32.017Z,4.20
2024-04-18T06:47:02.911Z,5.00
2024-04-18T06:52:02.282Z,7.40
2024-04-18T06:54:32.723Z,6.90
2024-04-18T06:57:03.197Z,5.20
2024-04-18T06:59:33.517Z,4.60
2024-04-18T07:02:04.404Z,4.30
2024-04-18T07:04:34.913Z,5.00
2024-04-18T07:07:05.366Z,4.20
2024-04-18T07:09:35.844Z,4.10
2024-04-18T07:12:08.243Z,4.30
2024-04-18T07:14:38.436Z,3.20
2024-04-18T07:17:08.916Z,3.50
2024-04-18T07:19:39.179Z,3.10
2024-04-18T07:22:09.433Z,3.70
2024-04-18T07:24:39.914Z,4.40
2024-04-18T07:27:10.177Z,3.20
2024-04-18T07:29:41.159Z,3.70
2024-04-18T07:34:40.567Z,6.00
2024-04-18T07:37:10.960Z,4.70
2024-04-18T07:39:41.716Z,5.30
2024-04-18T07:42:12.127Z,4.50
2024-04-18T07:44:42.271Z,4.10
2024-04-18T07:47:12.548Z,3.90
2024-04-18T07:49:44.968Z,3.60
2024-04-18T07:52:17.477Z,3.80
2024-04-18T07:54:48.279Z,4.30
2024-04-18T07:57:18.930Z,9.60
2024-04-18T08:02:21.967Z,4.00
2024-04-18T08:04:57.964Z,6.80
2024-04-18T08:07:33.069Z,3.30
2024-04-18T08:10:11.142Z,3.50
2024-04-18T08:12:47.957Z,2.10
2024-04-18T08:15:24.303Z,2.90
2024-04-18T08:17:58.140Z,2.70
2024-04-18T08:20:28.478Z,2.70
2024-04-18T08:23:00.166Z,4.20
2024-04-18T08:25:30.732Z,4.80
2024-04-18T08:28:01.223Z,4.60
2024-04-18T08:30:31.640Z,6.80
2024-04-18T08:33:02.144Z,4.20
2024-04-18T08:35:33.197Z,5.20
2024-04-18T08:40:33.518Z,3.70
2024-04-18T08:43:03.960Z,4.30
2024-04-18T08:45:34.704Z,3.40
2024-04-18T08:48:07.197Z,2.90
2024-04-18T08:50:42.046Z,3.10
2024-04-18T08:53:12.599Z,3.30
2024-04-18T08:55:47.653Z,3.10
2024-04-18T08:58:19.327Z,3.90
2024-04-18T09:00:50.610Z,3.60
2024-04-18T09:03:20.997Z,10.50
2024-04-18T09:05:51.788Z,7.70
2024-04-18T09:08:22.074Z,7.20
2024-04-18T09:10:54.274Z,6.70
2024-04-18T09:13:25.625Z,5.70
2024-04-18T09:15:57.438Z,5.00
2024-04-18T09:18:32.742Z,6.90
2024-04-18T09:21:03.624Z,9.60
2024-04-18T09:23:34.542Z,4.60
2024-04-18T09:26:05.116Z,4.00
2024-04-18T09:28:35.852Z,4.20
2024-04-18T09:31:07.184Z,4.00
2024-04-18T09:33:37.718Z,4.60
2024-04-18T09:36:11.776Z,3.50
2024-04-18T09:38:46.459Z,5.00
2024-04-18T09:41:21.188Z,7.60
2024-04-18T09:44:04.674Z,6.00
2024-04-18T09:46:35.708Z,3.00
2024-04-18T09:49:07.049Z,3.10
2024-04-18T09:51:38.044Z,4.70
2024-04-18T09:56:39.710Z,3.40
2024-04-18T09:59:12.894Z,2.90
2024-04-18T10:01:44.605Z,3.60
2024-04-18T10:04:15.133Z,3.60
2024-04-18T10:06:47.552Z,3.70
2024-04-18T10:09:20.657Z,3.60
2024-04-18T10:11:51.256Z,3.80
2024-04-18T10:14:22.021Z,3.10
2024-04-18T10:16:52.599Z,3.50
2024-04-18T10:19:24.379Z,3.50
2024-04-18T10:22:11.689Z,6.20
2024-04-18T10:24:52.432Z,3.50
2024-04-18T10:27:22.904Z,5.90
2024-04-18T10:29:58.118Z,4.10
2024-04-18T10:32:32.262Z,5.00
2024-04-18T10:35:03.533Z,5.20
2024-04-18T10:38:03.049Z,5.10
2024-04-18T10:40:33.391Z,3.90
2024-04-18T10:43:19.824Z,5.60
2024-04-18T10:45:54.133Z,3.50
2024-04-18T10:48:25.178Z,3.90
2024-04-18T10:50:55.979Z,3.30
2024-04-18T10:53:26.310Z,5.50
2024-04-18T10:55:56.616Z,3.80
2024-04-18T10:58:27.494Z,4.10
2024-04-18T11:00:59.711Z,2.40
2024-04-18T11:03:30.789Z,2.50
2024-04-18T11:06:02.377Z,2.00
2024-04-18T11:08:35.225Z,2.20
2024-04-18T11:11:06.767Z,1.50
2024-04-18T11:13:37.280Z,1.50
2024-04-18T11:16:09.735Z,2.40
2024-04-18T11:18:40.375Z,2.20
2024-04-18T11:21:11.040Z,1.40
2024-04-18T11:23:47.296Z,2.40
2024-04-18T11:26:21.500Z,4.20
2024-04-18T11:28:52.919Z,2.80
2024-04-18T11:31:23.718Z,4.00
2024-04-18T11:36:23.207Z,2.80
2024-04-18T11:38:58.216Z,3.20
2024-04-18T11:41:30.613Z,2.40
2024-04-18T11:44:02.313Z,1.80
2024-04-18T11:46:32.754Z,1.50
2024-04-18T11:49:03.414Z,3.40
2024-04-18T11:51:34.050Z,2.00
2024-04-18T11:54:04.480Z,2.20
2024-04-18T11:56:34.864Z,2.20
2024-04-18T11:59:05.033Z,2.00
2024-04-18T12:01:35.245Z,1.90
2024-04-18T12:04:06.216Z,2.20
2024-04-18T12:06:37.423Z,2.80
2024-04-18T12:09:07.919Z,2.20
2024-04-18T12:11:40.705Z,2.00
2024-04-18T12:14:19.831Z,3.40
2024-04-18T12:16:49.954Z,2.20
2024-04-18T12:19:25.579Z,1.60
2024-04-18T12:21:56.688Z,1.80
2024-04-18T12:24:26.898Z,1.90
2024-04-18T12:26:57.636Z,1.60
2024-04-18T12:29:28.168Z,1.40
2024-04-18T12:31:58.736Z,1.40
2024-04-18T12:34:29.517Z,1.30
2024-04-18T12:37:00.671Z,2.00
2024-04-18T12:39:30.997Z,1.40
2024-04-18T12:42:01.505Z,1.90
2024-04-18T12:44:32.466Z,1.50
2024-04-18T12:49:32.120Z,1.70
2024-04-18T12:52:02.489Z,2.20
2024-04-18T12:54:32.951Z,2.70
2024-04-18T12:57:03.377Z,3.60
2024-04-18T12:59:34.405Z,4.60
2024-04-18T13:02:06.264Z,5.40
2024-04-18T13:04:36.708Z,3.40
2024-04-18T13:07:07.476Z,3.10
2024-04-18T13:09:40.304Z,5.30
2024-04-18T13:12:12.480Z,2.50
2024-04-18T13:14:42.622Z,5.30
2024-04-18T13:17:15.151Z,2.80
2024-04-18T13:19:45.855Z,6.30
2024-04-18T13:22:16.072Z,3.70
2024-04-18T13:24:46.841Z,3.20
2024-04-18T13:27:17.404Z,3.30
2024-04-18T13:29:48.115Z,4.70
2024-04-18T13:32:18.591Z,2.70
2024-04-18T13:34:48.910Z,2.70
2024-04-18T13:37:19.341Z,1.70
2024-04-18T13:39:50.061Z,2.00
2024-04-18T13:42:20.239Z,2.10
2024-04-18T13:44:52.788Z,2.70
2024-04-18T13:47:23.561Z,2.80
2024-04-18T13:49:53.888Z,1.90
2024-04-18T13:52:24.221Z,1.20
2024-04-18T13:54:54.352Z,1.70
2024-04-18T13:57:24.831Z,2.00
2024-04-18T13:59:55.386Z,2.70
2024-04-18T14:02:25.713Z,7.10
2024-04-18T14:04:56.041Z,1.20
2024-04-18T14:07:26.508Z,2.80
2024-04-18T14:09:58.190Z,4.60
2024-04-18T14:12:28.830Z,5.50
2024-04-18T14:14:59.301Z,6.30
2024-04-18T14:17:29.973Z,3.80
2024-04-18T14:20:00.256Z,1.70
2024-04-18T14:22:30.739Z,2.10
2024-04-18T14:25:01.306Z,1.00
2024-04-18T14:27:31.738Z,1.20
2024-04-18T14:30:02.845Z,2.20
2024-04-18T14:32:33.462Z,1.20
2024-04-18T14:35:05.044Z,2.50
2024-04-18T14:37:35.534Z,2.70
2024-04-18T14:40:08.481Z,1.60
2024-04-18T14:42:39.132Z,3.70
2024-04-18T14:45:12.397Z,4.30
2024-04-18T14:47:42.930Z,4.20
2024-04-18T14:50:13.685Z,5.80
2024-04-18T14:52:44.022Z,3.20
2024-04-18T14:55:15.020Z,3.60
2024-04-18T15:00:15.846Z,3.10
2024-04-18T15:02:46.593Z,2.30
2024-04-18T15:05:24.078Z,2.20
2024-04-18T15:07:54.418Z,3.40
2024-04-18T15:10:25.292Z,3.60
2024-04-18T15:12:55.951Z,4.30
2024-04-18T15:15:26.227Z,3.00
2024-04-18T15:17:56.649Z,1.50
2024-04-18T15:20:27.171Z,3.10
2024-04-18T15:22:57.503Z,2.10
2024-04-18T15:25:27.900Z,1.90
2024-04-18T15:27:58.687Z,4.10
2024-04-18T15:30:29.036Z,1.90
2024-04-18T15:32:59.685Z,1.50
2024-04-18T15:35:30.179Z,4.60
2024-04-18T15:38:00.485Z,3.80
2024-04-18T15:40:30.682Z,3.60
2024-04-18T15:43:00.880Z,3.40
2024-04-18T15:45:31.366Z,4.20
2024-04-18T15:48:01.929Z,4.20
2024-04-18T15:50:32.508Z,2.90
2024-04-18T15:53:02.880Z,2.10
2024-04-18T15:55:33.573Z,2.20
2024-04-18T15:58:04.056Z,4.10
2024-04-18T16:00:34.562Z,3.90
2024-04-18T16:03:08.286Z,5.00
2024-04-18T16:05:45.155Z,5.90
2024-04-18T16:08:15.456Z,3.50
2024-04-18T16:10:47.167Z,6.90
2024-04-18T16:13:17.471Z,2.10
2024-04-18T16:15:47.906Z,2.30
2024-04-18T16:18:18.359Z,1.70
2024-04-18T16:20:56.497Z,2.50
2024-04-18T16:23:27.416Z,1.20
2024-04-18T16:25:57.777Z,1.40
2024-04-18T16:28:28.136Z,3.50
2024-04-18T16:31:00.221Z,4.50
2024-04-18T16:33:30.853Z,5.00
2024-04-18T16:36:01.557Z,4.30
2024-04-18T16:38:31.735Z,4.40
2024-04-18T16:41:02.159Z,5.50
2024-04-18T16:43:34.694Z,4.00
2024-04-18T16:46:07.076Z,3.80
2024-04-18T16:48:37.485Z,3.50
2024-04-18T16:51:07.908Z,3.30
2024-04-18T16:53:38.316Z,6.60
2024-04-18T16:56:08.915Z,9.40
2024-04-18T16:58:39.194Z,9.00
2024-04-18T17:01:09.932Z,7.80
2024-04-18T17:03:40.536Z,5.20
2024-04-18T17:06:11.303Z,7.10
2024-04-18T17:08:41.606Z,6.10
2024-04-18T17:11:11.798Z,6.30
2024-04-18T17:13:42.190Z,12.60
2024-04-18T17:16:12.752Z,17.50
2024-04-18T17:18:43.152Z,9.70
2024-04-18T17:21:14.012Z,9.80
2024-04-18T17:23:44.426Z,8.80
2024-04-18T17:26:15.054Z,11.60
2024-04-18T17:28:45.471Z,11.30
2024-04-18T17:31:16.010Z,17.50
2024-04-18T17:33:46.385Z,12.90
2024-04-18T17:36:16.923Z,11.70
2024-04-18T17:38:48.322Z,9.00
2024-04-18T17:41:21.248Z,9.60
2024-04-18T17:43:51.668Z,16.60
2024-04-18T17:46:22.248Z,21.70
2024-04-18T17:48:53.345Z,24.30
2024-04-18T17:51:23.740Z,23.80
2024-04-18T17:53:54.703Z,40.00
2024-04-18T17:58:53.863Z,36.80
2024-04-18T18:01:24.299Z,33.00
2024-04-18T18:03:54.937Z,29.40
2024-04-18T18:06:25.419Z,30.20
2024-04-18T18:08:55.861Z,32.60
2024-04-18T18:11:27.448Z,39.70
2024-04-18T18:13:58.199Z,44.30
2024-04-18T18:16:28.591Z,42.60
2024-04-18T18:18:59.251Z,47.00
2024-04-18T18:21:29.849Z,46.30
2024-04-18T18:24:00.169Z,48.20
2024-04-18T18:26:30.878Z,55.20
2024-04-18T18:29:02.001Z,67.60
2024-04-18T18:31:32.420Z,66.30
2024-04-18T18:34:03.126Z,61.70
2024-04-18T18:36:33.482Z,63.00
2024-04-18T18:39:03.822Z,57.80
2024-04-18T18:41:34.232Z,54.90
2024-04-18T18:44:05.848Z,51.50
2024-04-18T18:46:36.275Z,55.60
2024-04-18T18:49:06.773Z,53.40
2024-04-18T18:51:37.256Z,49.50
2024-04-18T18:54:09.501Z,51.00
2024-04-18T18:56:40.070Z,43.40
2024-04-18T18:59:10.892Z,43.20
2024-04-18T19:01:41.339Z,47.50
2024-04-18T19:04:11.927Z,41.40
2024-04-18T19:06:42.324Z,38.80
2024-04-18T19:09:12.828Z,36.90
2024-04-18T19:11:43.574Z,36.90
2024-04-18T19:14:14.508Z,37.80
2024-04-18T19:16:45.392Z,31.20
2024-04-18T19:19:15.751Z,27.60
2024-04-18T19:21:46.226Z,28.40
2024-04-18T19:24:16.824Z,28.80
2024-04-18T19:26:47.185Z,25.50
2024-04-18T19:29:27.172Z,29.70
2024-04-18T19:32:08.620Z,25.30
2024-04-18T19:34:38.968Z,26.70
2024-04-18T19:37:09.325Z,34.70
2024-04-18T19:39:39.685Z,32.10
2024-04-18T19:42:10.219Z,32.00
2024-04-18T19:44:40.482Z,25.60
2024-04-18T19:47:11.307Z,16.90
2024-04-18T19:49:41.646Z,14.50
2024-04-18T19:52:12.238Z,22.30
2024-04-18T19:54:42.799Z,21.90
2024-04-18T19:57:13.217Z,21.70
2024-04-18T19:59:43.925Z,22.70
2024-04-18T20:02:14.793Z,26.50
2024-04-18T20:04:45.213Z,26.60
2024-04-18T20:07:16.128Z,23.20
2024-04-18T20:09:46.840Z,19.00
2024-04-18T20:12:17.646Z,18.70
2024-04-18T20:14:48.375Z,18.20
2024-04-18T20:17:18.792Z,13.70
2024-04-18T20:19:49.064Z,13.00
2024-04-18T20:22:19.446Z,15.60
2024-04-18T20:24:49.764Z,14.90
2024-04-18T20:27:20.214Z,13.20
2024-04-18T20:29:50.506Z,15.50
2024-04-18T20:32:20.851Z,14.70
2024-04-18T20:34:51.520Z,20.80
2024-04-18T20:37:22.448Z,20.30
2024-04-18T20:39:56.417Z,17.40
2024-04-18T20:42:29.300Z,17.80
2024-04-18T20:45:02.244Z,16.60
2024-04-18T20:47:33.204Z,18.90
2024-04-18T20:52:34.435Z,21.20
2024-04-18T20:55:05.316Z,20.80
2024-04-18T20:57:35.790Z,16.60
2024-04-18T21:00:08.547Z,17.70
2024-04-18T21:02:38.845Z,15.10
2024-04-18T21:05:09.033Z,15.70
2024-04-18T21:07:39.464Z,16.60
2024-04-18T21:10:09.926Z,15.40
2024-04-18T21:12:40.934Z,13.30
2024-04-18T21:15:11.719Z,15.30
2024-04-18T21:17:42.232Z,13.90
2024-04-18T21:20:12.757Z,14.10
2024-04-18T21:22:43.021Z,11.30
2024-04-18T21:25:13.215Z,12.00
2024-04-18T21:27:43.866Z,14.90
2024-04-18T21:30:14.238Z,17.10
2024-04-18T21:32:44.348Z,13.30
2024-04-18T21:35:14.643Z,12.80
2024-04-18T21:37:45.883Z,12.70
2024-04-18T21:40:16.682Z,13.40
2024-04-18T21:42:47.465Z,12.10
2024-04-18T21:45:19.013Z,15.10
2024-04-18T21:47:49.550Z,12.50
2024-04-18T21:50:19.853Z,13.20
2024-04-18T21:52:50.122Z,14.10
2024-04-18T21:55:20.694Z,14.40
2024-04-18T21:57:51.190Z,18.70
2024-04-18T22:00:22.457Z,15.80
2024-04-18T22:02:52.986Z,13.00
2024-04-18T22:05:23.590Z,11.70
2024-04-18T22:07:54.812Z,14.30
2024-04-18T22:10:25.280Z,12.90
2024-04-18T22:12:55.552Z,14.00
2024-04-18T22:15:25.886Z,15.70
2024-04-18T22:17:56.614Z,17.50
2024-04-18T22:20:27.003Z,16.00
2024-04-18T22:22:58.203Z,13.70
2024-04-18T22:25:28.766Z,15.50
2024-04-18T22:27:59.170Z,14.10
2024-04-18T22:30:29.472Z,14.00
2024-04-18T22:32:59.616Z,15.30
2024-04-18T22:35:29.909Z,15.40
2024-04-18T22:38:00.154Z,13.00
2024-04-18T22:40:31.271Z,13.30
2024-04-18T22:45:30.657Z,12.20
2024-04-18T22:48:01.456Z,15.10
2024-04-18T22:50:31.772Z,15.20
2024-04-18T22:53:01.861Z,10.50
2024-04-18T22:55:32.021Z,12.50
2024-04-18T22:58:05.048Z,13.80
2024-04-18T23:00:38.088Z,11.80
2024-04-18T23:03:08.668Z,12.80
2024-04-18T23:05:39.998Z,13.90
2024-04-18T23:08:10.159Z,13.90
2024-04-18T23:10:40.915Z,14.90
2024-04-18T23:13:11.169Z,15.90
2024-04-18T23:15:42.119Z,16.30
2024-04-18T23:20:43.228Z,16.70
2024-04-18T23:23:13.537Z,14.60
2024-04-18T23:25:45.583Z,17.70
2024-04-18T23:28:15.910Z,17.90
2024-04-18T23:30:46.682Z,13.50
2024-04-18T23:33:17.481Z,13.30
2024-04-18T23:35:47.850Z,13.80
2024-04-18T23:38:18.155Z,16.20
2024-04-18T23:40:48.354Z,17.30
2024-04-18T23:43:19.114Z,17.90
2024-04-18T23:45:50.043Z,15.00
2024-04-18T23:48:20.607Z,14.70
2024-04-18T23:50:51.061Z,15.80
2024-04-18T23:53:21.675Z,12.50
2024-04-18T23:55:51.969Z,16.50
2024-04-18T23:58:22.200Z,15.20
